sensor_id;sensor_type;location;lat;lon;timestamp;temperature;humidity
20680;DHT22;10499;47.494;7.608;2022-10-30T00:02:14;13.40;99.90
20680;DHT22;10499;47.494;7.608;2022-10-30T00:04:48;13.50;99.90
20680;DHT22;10499;47.494;7.608;2022-10-30T00:07:29;13.50;99.90
20680;DHT22;10499;47.494;7.608;2022-10-30T00:10:02;13.40;99.90
20680;DHT22;10499;47.494;7.608;2022-10-30T00:13:01;13.40;99.90
20680;DHT22;10499;47.494;7.608;2022-10-30T00:15:36;13.40;99.90
20680;DHT22;10499;47.494;7.608;2022-10-30T00:18:07;13.40;99.90
20680;DHT22;10499;47.494;7.608;2022-10-30T00:21:07;13.40;99.90
20680;DHT22;10499;47.494;7.608;2022-10-30T00:23:33;13.30;99.90
20680;DHT22;10499;47.494;7.608;2022-10-30T00:26:06;13.30;99.90
20680;DHT22;10499;47.494;7.608;2022-10-30T00:28:58;13.20;99.90
20680;DHT22;10499;47.494;7.608;2022-10-30T00:31:37;13.20;99.90
20680;DHT22;10499;47.494;7.608;2022-10-30T00:34:11;13.10;99.90
20680;DHT22;10499;47.494;7.608;2022-10-30T00:36:47;13.20;99.90
20680;DHT22;10499;47.494;7.608;2022-10-30T00:39:18;13.20;99.90
20680;DHT22;10499;47.494;7.608;2022-10-30T00:42:01;13.10;99.90
20680;DHT22;10499;47.494;7.608;2022-10-30T00:45:02;13.00;99.90
20680;DHT22;10499;47.494;7.608;2022-10-30T00:47:56;13.10;99.90
20680;DHT22;10499;47.494;7.608;2022-10-30T00:50:30;13.00;99.90
20680;DHT22;10499;47.494;7.608;2022-10-30T00:53:01;13.00;99.90
20680;DHT22;10499;47.494;7.608;2022-10-30T00:55:36;12.90;99.90
20680;DHT22;10499;47.494;7.608;2022-10-30T00:58:18;12.90;99.90
20680;DHT22;10499;47.494;7.608;2022-10-30T01:00:55;12.90;99.90
20680;DHT22;10499;47.494;7.608;2022-10-30T01:03:35;12.90;99.90
20680;DHT22;10499;47.494;7.608;2022-10-30T01:06:09;12.90;99.90
20680;DHT22;10499;47.494;7.608;2022-10-30T01:08:46;12.90;99.90
20680;DHT22;10499;47.494;7.608;2022-10-30T01:11:12;13.00;99.90
20680;DHT22;10499;47.494;7.608;2022-10-30T01:13:42;13.00;99.90
20680;DHT22;10499;47.494;7.608;2022-10-30T01:19:24;13.10;99.90
20680;DHT22;10499;47.494;7.608;2022-10-30T01:34:19;13.20;99.90
20680;DHT22;10499;47.494;7.608;2022-10-30T01:36:51;13.20;99.90
20680;DHT22;10499;47.494;7.608;2022-10-30T01:39:40;13.10;99.90
20680;DHT22;10499;47.494;7.608;2022-10-30T01:51:58;12.80;99.90
20680;DHT22;10499;47.494;7.608;2022-10-30T01:58:13;12.70;99.90
20680;DHT22;10499;47.494;7.608;2022-10-30T02:00:46;12.70;99.90
20680;DHT22;10499;47.494;7.608;2022-10-30T02:03:15;12.70;99.90
20680;DHT22;10499;47.494;7.608;2022-10-30T02:05:52;12.60;99.90
20680;DHT22;10499;47.494;7.608;2022-10-30T02:08:21;12.60;99.90
20680;DHT22;10499;47.494;7.608;2022-10-30T02:10:51;12.70;99.90
20680;DHT22;10499;47.494;7.608;2022-10-30T02:13:30;12.70;99.90
20680;DHT22;10499;47.494;7.608;2022-10-30T02:16:08;12.70;99.90
20680;DHT22;10499;47.494;7.608;2022-10-30T02:18:37;12.70;99.90
20680;DHT22;10499;47.494;7.608;2022-10-30T02:21:09;12.80;99.90
20680;DHT22;10499;47.494;7.608;2022-10-30T02:23:43;12.70;99.90
20680;DHT22;10499;47.494;7.608;2022-10-30T02:26:21;12.60;99.90
20680;DHT22;10499;47.494;7.608;2022-10-30T02:28:49;12.60;99.90
20680;DHT22;10499;47.494;7.608;2022-10-30T02:31:27;12.60;99.90
20680;DHT22;10499;47.494;7.608;2022-10-30T02:34:13;12.60;99.90
20680;DHT22;10499;47.494;7.608;2022-10-30T02:36:42;12.60;99.90
20680;DHT22;10499;47.494;7.608;2022-10-30T02:39:11;12.60;99.90
20680;DHT22;10499;47.494;7.608;2022-10-30T02:41:39;12.50;99.90
20680;DHT22;10499;47.494;7.608;2022-10-30T02:44:10;12.50;99.90
20680;DHT22;10499;47.494;7.608;2022-10-30T02:46:43;12.40;99.90
20680;DHT22;10499;47.494;7.608;2022-10-30T02:52:06;12.20;99.90
20680;DHT22;10499;47.494;7.608;2022-10-30T02:54:51;12.20;99.90
20680;DHT22;10499;47.494;7.608;2022-10-30T02:57:40;12.30;99.90
20680;DHT22;10499;47.494;7.608;2022-10-30T03:00:35;12.30;99.90
20680;DHT22;10499;47.494;7.608;2022-10-30T03:07:01;12.40;99.90
20680;DHT22;10499;47.494;7.608;2022-10-30T03:09:59;12.30;99.90
20680;DHT22;10499;47.494;7.608;2022-10-30T03:12:40;12.30;99.90
20680;DHT22;10499;47.494;7.608;2022-10-30T03:15:14;12.30;99.90
20680;DHT22;10499;47.494;7.608;2022-10-30T03:18:11;12.30;99.90
20680;DHT22;10499;47.494;7.608;2022-10-30T03:20:57;12.40;99.90
20680;DHT22;10499;47.494;7.608;2022-10-30T03:23:54;12.40;99.90
20680;DHT22;10499;47.494;7.608;2022-10-30T03:26:40;12.40;99.90
20680;DHT22;10499;47.494;7.608;2022-10-30T03:35:47;12.20;99.90
20680;DHT22;10499;47.494;7.608;2022-10-30T03:38:52;12.20;99.90
20680;DHT22;10499;47.494;7.608;2022-10-30T03:42:02;12.20;99.90
20680;DHT22;10499;47.494;7.608;2022-10-30T03:47:40;12.10;99.90
20680;DHT22;10499;47.494;7.608;2022-10-30T03:50:40;12.00;99.90
20680;DHT22;10499;47.494;7.608;2022-10-30T03:53:19;12.00;99.90
20680;DHT22;10499;47.494;7.608;2022-10-30T03:56:06;12.00;99.90
20680;DHT22;10499;47.494;7.608;2022-10-30T03:59:19;12.00;99.90
20680;DHT22;10499;47.494;7.608;2022-10-30T04:02:05;11.90;99.90
20680;DHT22;10499;47.494;7.608;2022-10-30T04:04:45;11.90;99.90
20680;DHT22;10499;47.494;7.608;2022-10-30T04:07:26;11.90;99.90
20680;DHT22;10499;47.494;7.608;2022-10-30T04:10:08;12.10;99.90
20680;DHT22;10499;47.494;7.608;2022-10-30T04:12:39;12.20;99.90
20680;DHT22;10499;47.494;7.608;2022-10-30T04:15:57;12.00;99.90
20680;DHT22;10499;47.494;7.608;2022-10-30T04:18:21;12.00;99.90
20680;DHT22;10499;47.494;7.608;2022-10-30T04:27:24;11.90;99.90
20680;DHT22;10499;47.494;7.608;2022-10-30T04:30:15;11.90;99.90
20680;DHT22;10499;47.494;7.608;2022-10-30T04:36:04;11.80;99.90
20680;DHT22;10499;47.494;7.608;2022-10-30T04:39:00;11.80;99.90
20680;DHT22;10499;47.494;7.608;2022-10-30T04:41:39;11.90;99.90
20680;DHT22;10499;47.494;7.608;2022-10-30T04:44:36;11.70;99.90
20680;DHT22;10499;47.494;7.608;2022-10-30T04:47:12;11.70;99.90
20680;DHT22;10499;47.494;7.608;2022-10-30T04:49:56;11.70;99.90
20680;DHT22;10499;47.494;7.608;2022-10-30T04:52:41;11.70;99.90
20680;DHT22;10499;47.494;7.608;2022-10-30T08:37:58;25.00;67.40
20680;DHT22;10499;47.494;7.608;2022-10-30T08:40:32;25.00;66.80
20680;DHT22;10499;47.494;7.608;2022-10-30T08:43:22;25.00;66.60
20680;DHT22;10499;47.494;7.608;2022-10-30T08:46:08;24.40;67.10
20680;DHT22;10499;47.494;7.608;2022-10-30T08:51:12;23.60;68.20
20680;DHT22;10499;47.494;7.608;2022-10-30T08:53:47;23.40;69.70
20680;DHT22;10499;47.494;7.608;2022-10-30T09:06:39;26.00;62.90
20680;DHT22;10499;47.494;7.608;2022-10-30T09:09:32;27.30;58.70
20680;DHT22;10499;47.494;7.608;2022-10-30T09:12:06;28.10;56.70
20680;DHT22;10499;47.494;7.608;2022-10-30T09:14:41;27.90;56.30
20680;DHT22;10499;47.494;7.608;2022-10-30T09:17:17;28.00;55.10
20680;DHT22;10499;47.494;7.608;2022-10-30T09:20:02;28.10;54.70
20680;DHT22;10499;47.494;7.608;2022-10-30T09:22:42;28.40;53.00
20680;DHT22;10499;47.494;7.608;2022-10-30T09:25:21;28.80;52.40
20680;DHT22;10499;47.494;7.608;2022-10-30T09:27:53;29.20;51.80
20680;DHT22;10499;47.494;7.608;2022-10-30T09:30:24;29.20;52.60
20680;DHT22;10499;47.494;7.608;2022-10-30T09:32:56;29.00;52.80
20680;DHT22;10499;47.494;7.608;2022-10-30T09:35:25;28.80;53.40
20680;DHT22;10499;47.494;7.608;2022-10-30T09:37:55;28.90;54.00
20680;DHT22;10499;47.494;7.608;2022-10-30T09:46:36;27.40;58.00
20680;DHT22;10499;47.494;7.608;2022-10-30T10:05:26;28.50;57.10
20680;DHT22;10499;47.494;7.608;2022-10-30T10:08:02;29.40;55.20
20680;DHT22;10499;47.494;7.608;2022-10-30T10:10:38;30.00;53.20
20680;DHT22;10499;47.494;7.608;2022-10-30T10:13:05;31.40;51.20
20680;DHT22;10499;47.494;7.608;2022-10-30T10:15:42;31.30;50.70
20680;DHT22;10499;47.494;7.608;2022-10-30T10:18:16;29.60;53.40
20680;DHT22;10499;47.494;7.608;2022-10-30T10:20:46;28.60;55.70
20680;DHT22;10499;47.494;7.608;2022-10-30T10:26:47;28.80;53.30
20680;DHT22;10499;47.494;7.608;2022-10-30T10:40:56;26.20;57.50
20680;DHT22;10499;47.494;7.608;2022-10-30T10:49:12;25.90;57.00
20680;DHT22;10499;47.494;7.608;2022-10-30T10:51:48;25.60;57.00
20680;DHT22;10499;47.494;7.608;2022-10-30T10:57:04;25.40;57.00
20680;DHT22;10499;47.494;7.608;2022-10-30T10:59:41;25.40;57.20
20680;DHT22;10499;47.494;7.608;2022-10-30T11:04:53;25.20;57.50
20680;DHT22;10499;47.494;7.608;2022-10-30T11:07:23;25.60;57.00
20680;DHT22;10499;47.494;7.608;2022-10-30T11:09:53;26.30;56.60
20680;DHT22;10499;47.494;7.608;2022-10-30T11:12:34;27.20;54.50
20680;DHT22;10499;47.494;7.608;2022-10-30T11:17:58;27.90;52.10
20680;DHT22;10499;47.494;7.608;2022-10-30T11:23:40;27.30;52.90
20680;DHT22;10499;47.494;7.608;2022-10-30T11:29:14;27.60;54.40
20680;DHT22;10499;47.494;7.608;2022-10-30T11:31:45;27.40;53.60
20680;DHT22;10499;47.494;7.608;2022-10-30T11:34:23;27.50;53.90
20680;DHT22;10499;47.494;7.608;2022-10-30T11:36:53;28.00;53.30
20680;DHT22;10499;47.494;7.608;2022-10-30T11:39:33;27.90;53.50
20680;DHT22;10499;47.494;7.608;2022-10-30T11:42:13;27.60;54.70
20680;DHT22;10499;47.494;7.608;2022-10-30T11:44:48;27.80;54.90
20680;DHT22;10499;47.494;7.608;2022-10-30T11:47:19;28.50;53.80
20680;DHT22;10499;47.494;7.608;2022-10-30T11:50:01;29.20;52.30
20680;DHT22;10499;47.494;7.608;2022-10-30T11:52:36;29.00;52.10
20680;DHT22;10499;47.494;7.608;2022-10-30T12:02:48;27.50;55.70
20680;DHT22;10499;47.494;7.608;2022-10-30T12:05:29;27.90;55.30
20680;DHT22;10499;47.494;7.608;2022-10-30T12:08:17;28.00;54.80
20680;DHT22;10499;47.494;7.608;2022-10-30T12:10:58;27.50;54.10
20680;DHT22;10499;47.494;7.608;2022-10-30T12:13:28;27.60;53.70
20680;DHT22;10499;47.494;7.608;2022-10-30T12:16:09;27.40;53.80
20680;DHT22;10499;47.494;7.608;2022-10-30T12:18:38;27.70;54.40
20680;DHT22;10499;47.494;7.608;2022-10-30T12:21:07;28.20;53.70
20680;DHT22;10499;47.494;7.608;2022-10-30T12:23:33;28.40;51.80
20680;DHT22;10499;47.494;7.608;2022-10-30T12:26:22;28.90;51.80
20680;DHT22;10499;47.494;7.608;2022-10-30T12:29:15;29.60;49.10
20680;DHT22;10499;47.494;7.608;2022-10-30T12:32:18;30.50;48.00
20680;DHT22;10499;47.494;7.608;2022-10-30T12:34:50;30.50;49.10
20680;DHT22;10499;47.494;7.608;2022-10-30T12:37:30;30.80;49.00
20680;DHT22;10499;47.494;7.608;2022-10-30T12:42:51;30.00;49.70
20680;DHT22;10499;47.494;7.608;2022-10-30T12:45:53;29.40;51.20
20680;DHT22;10499;47.494;7.608;2022-10-30T12:48:43;29.50;51.50
20680;DHT22;10499;47.494;7.608;2022-10-30T12:56:49;31.20;49.50
20680;DHT22;10499;47.494;7.608;2022-10-30T12:59:42;30.50;50.10
20680;DHT22;10499;47.494;7.608;2022-10-30T13:05:48;32.90;46.40
20680;DHT22;10499;47.494;7.608;2022-10-30T13:11:55;34.40;43.90
20680;DHT22;10499;47.494;7.608;2022-10-30T13:15:02;34.20;42.40
20680;DHT22;10499;47.494;7.608;2022-10-30T13:24:18;34.50;42.10
20680;DHT22;10499;47.494;7.608;2022-10-30T13:26:54;33.80;41.50
20680;DHT22;10499;47.494;7.608;2022-10-30T13:35:50;34.50;41.00
20680;DHT22;10499;47.494;7.608;2022-10-30T13:44:52;33.20;42.90
20680;DHT22;10499;47.494;7.608;2022-10-30T13:48:03;32.80;43.20
20680;DHT22;10499;47.494;7.608;2022-10-30T13:51:28;33.10;42.90
20680;DHT22;10499;47.494;7.608;2022-10-30T13:54:46;33.70;42.20
20680;DHT22;10499;47.494;7.608;2022-10-30T13:58:00;33.70;41.50
20680;DHT22;10499;47.494;7.608;2022-10-30T14:11:48;30.80;46.70
20680;DHT22;10499;47.494;7.608;2022-10-30T14:14:27;30.40;47.20
20680;DHT22;10499;47.494;7.608;2022-10-30T14:17:18;30.00;48.40
20680;DHT22;10499;47.494;7.608;2022-10-30T14:23:16;30.20;48.90
20680;DHT22;10499;47.494;7.608;2022-10-30T14:26:13;29.90;48.00
20680;DHT22;10499;47.494;7.608;2022-10-30T14:28:44;29.50;48.80
20680;DHT22;10499;47.494;7.608;2022-10-30T14:31:31;29.60;49.50
20680;DHT22;10499;47.494;7.608;2022-10-30T14:34:21;29.80;49.20
20680;DHT22;10499;47.494;7.608;2022-10-30T14:36:58;29.20;50.80
20680;DHT22;10499;47.494;7.608;2022-10-30T14:39:46;28.70;51.60
20680;DHT22;10499;47.494;7.608;2022-10-30T15:06:16;27.60;59.10
20680;DHT22;10499;47.494;7.608;2022-10-30T15:08:42;27.60;58.00
20680;DHT22;10499;47.494;7.608;2022-10-30T15:14:00;27.40;58.10
20680;DHT22;10499;47.494;7.608;2022-10-30T15:16:28;26.90;57.90
20680;DHT22;10499;47.494;7.608;2022-10-30T15:19:06;26.70;60.90
20680;DHT22;10499;47.494;7.608;2022-10-30T15:21:41;26.60;64.20
20680;DHT22;10499;47.494;7.608;2022-10-30T15:24:15;26.30;61.70
20680;DHT22;10499;47.494;7.608;2022-10-30T15:26:50;26.10;65.10
20680;DHT22;10499;47.494;7.608;2022-10-30T15:29:33;25.90;65.60
20680;DHT22;10499;47.494;7.608;2022-10-30T15:35:00;25.70;66.70
20680;DHT22;10499;47.494;7.608;2022-10-30T15:38:00;25.30;70.20
20680;DHT22;10499;47.494;7.608;2022-10-30T15:40:44;25.10;71.90
20680;DHT22;10499;47.494;7.608;2022-10-30T15:43:13;24.60;72.50
20680;DHT22;10499;47.494;7.608;2022-10-30T15:45:46;24.10;75.00
20680;DHT22;10499;47.494;7.608;2022-10-30T15:48:31;23.70;77.70
20680;DHT22;10499;47.494;7.608;2022-10-30T15:51:04;23.30;79.10
20680;DHT22;10499;47.494;7.608;2022-10-30T15:56:03;22.90;83.10
20680;DHT22;10499;47.494;7.608;2022-10-30T15:58:48;22.70;85.80
20680;DHT22;10499;47.494;7.608;2022-10-30T16:01:35;22.60;88.20
20680;DHT22;10499;47.494;7.608;2022-10-30T16:04:22;22.30;90.70
20680;DHT22;10499;47.494;7.608;2022-10-30T16:07:01;22.40;92.40
20680;DHT22;10499;47.494;7.608;2022-10-30T16:09:58;22.20;94.20
20680;DHT22;10499;47.494;7.608;2022-10-30T16:12:32;21.80;99.30
20680;DHT22;10499;47.494;7.608;2022-10-30T16:18:24;21.20;99.90
20680;DHT22;10499;47.494;7.608;2022-10-30T16:20:59;21.20;99.90
20680;DHT22;10499;47.494;7.608;2022-10-30T16:23:45;21.00;99.90
20680;DHT22;10499;47.494;7.608;2022-10-30T16:26:38;20.80;99.90
20680;DHT22;10499;47.494;7.608;2022-10-30T16:29:25;20.40;99.90
20680;DHT22;10499;47.494;7.608;2022-10-30T16:32:12;20.20;99.90
20680;DHT22;10499;47.494;7.608;2022-10-30T16:34:46;20.10;99.90
20680;DHT22;10499;47.494;7.608;2022-10-30T16:37:22;20.10;99.90
20680;DHT22;10499;47.494;7.608;2022-10-30T16:39:52;20.00;99.90
20680;DHT22;10499;47.494;7.608;2022-10-30T16:42:43;19.90;99.90
20680;DHT22;10499;47.494;7.608;2022-10-30T16:47:41;19.40;99.90
20680;DHT22;10499;47.494;7.608;2022-10-30T16:53:24;19.30;99.90
20680;DHT22;10499;47.494;7.608;2022-10-30T16:56:28;19.10;99.90
20680;DHT22;10499;47.494;7.608;2022-10-30T16:59:17;18.90;99.90
20680;DHT22;10499;47.494;7.608;2022-10-30T17:01:55;18.60;99.90
20680;DHT22;10499;47.494;7.608;2022-10-30T17:04:35;18.60;99.90
20680;DHT22;10499;47.494;7.608;2022-10-30T17:07:16;18.40;99.90
20680;DHT22;10499;47.494;7.608;2022-10-30T17:09:44;18.40;99.90
20680;DHT22;10499;47.494;7.608;2022-10-30T17:12:12;18.40;99.90
20680;DHT22;10499;47.494;7.608;2022-10-30T17:18:07;18.10;99.90
20680;DHT22;10499;47.494;7.608;2022-10-30T17:20:37;18.00;99.90
20680;DHT22;10499;47.494;7.608;2022-10-30T17:23:15;17.90;99.90
20680;DHT22;10499;47.494;7.608;2022-10-30T17:26:06;17.90;99.90
20680;DHT22;10499;47.494;7.608;2022-10-30T17:29:10;17.80;99.90
20680;DHT22;10499;47.494;7.608;2022-10-30T17:31:58;17.70;99.90
20680;DHT22;10499;47.494;7.608;2022-10-30T17:34:26;17.60;99.90
20680;DHT22;10499;47.494;7.608;2022-10-30T17:37:46;17.60;99.90
20680;DHT22;10499;47.494;7.608;2022-10-30T17:40:11;17.50;99.90
20680;DHT22;10499;47.494;7.608;2022-10-30T17:48:50;17.40;99.90
20680;DHT22;10499;47.494;7.608;2022-10-30T17:51:42;17.30;99.90
20680;DHT22;10499;47.494;7.608;2022-10-30T17:54:34;16.90;99.90
20680;DHT22;10499;47.494;7.608;2022-10-30T17:57:33;16.60;99.90
20680;DHT22;10499;47.494;7.608;2022-10-30T18:11:57;16.40;99.90
20680;DHT22;10499;47.494;7.608;2022-10-30T18:17:37;16.20;99.90
20680;DHT22;10499;47.494;7.608;2022-10-30T18:20:10;16.10;99.90
20680;DHT22;10499;47.494;7.608;2022-10-30T18:23:34;16.10;99.90
20680;DHT22;10499;47.494;7.608;2022-10-30T18:26:06;16.10;99.90
20680;DHT22;10499;47.494;7.608;2022-10-30T18:28:58;16.10;99.90
20680;DHT22;10499;47.494;7.608;2022-10-30T18:31:44;16.10;99.90
20680;DHT22;10499;47.494;7.608;2022-10-30T18:34:15;15.90;99.90
20680;DHT22;10499;47.494;7.608;2022-10-30T18:43:25;15.80;99.90
20680;DHT22;10499;47.494;7.608;2022-10-30T18:46:19;15.80;99.90
20680;DHT22;10499;47.494;7.608;2022-10-30T18:48:51;15.60;99.90
20680;DHT22;10499;47.494;7.608;2022-10-30T18:51:46;15.50;99.90
20680;DHT22;10499;47.494;7.608;2022-10-30T18:54:23;15.50;99.90
20680;DHT22;10499;47.494;7.608;2022-10-30T18:57:26;15.40;99.90
20680;DHT22;10499;47.494;7.608;2022-10-30T19:00:44;15.30;99.90
20680;DHT22;10499;47.494;7.608;2022-10-30T19:09:31;15.40;99.90
20680;DHT22;10499;47.494;7.608;2022-10-30T19:12:07;15.30;99.90
20680;DHT22;10499;47.494;7.608;2022-10-30T19:14:47;15.30;99.90
20680;DHT22;10499;47.494;7.608;2022-10-30T19:17:15;15.20;99.90
20680;DHT22;10499;47.494;7.608;2022-10-30T19:19:48;15.10;99.90
20680;DHT22;10499;47.494;7.608;2022-10-30T19:22:21;15.10;99.90
20680;DHT22;10499;47.494;7.608;2022-10-30T19:53:43;14.50;99.90
20680;DHT22;10499;47.494;7.608;2022-10-30T19:59:14;14.50;99.90
20680;DHT22;10499;47.494;7.608;2022-10-30T20:02:13;14.50;99.90
20680;DHT22;10499;47.494;7.608;2022-10-30T20:04:45;14.40;99.90
20680;DHT22;10499;47.494;7.608;2022-10-30T20:11:00;14.30;99.90
20680;DHT22;10499;47.494;7.608;2022-10-30T20:13:36;14.20;99.90
20680;DHT22;10499;47.494;7.608;2022-10-30T20:16:10;14.10;99.90
20680;DHT22;10499;47.494;7.608;2022-10-30T20:18:53;14.00;99.90
20680;DHT22;10499;47.494;7.608;2022-10-30T20:21:32;13.80;99.90
20680;DHT22;10499;47.494;7.608;2022-10-30T20:24:15;13.90;99.90
20680;DHT22;10499;47.494;7.608;2022-10-30T20:26:54;14.00;99.90
20680;DHT22;10499;47.494;7.608;2022-10-30T20:32:17;13.90;99.90
20680;DHT22;10499;47.494;7.608;2022-10-30T20:35:06;13.80;99.90
20680;DHT22;10499;47.494;7.608;2022-10-30T20:40:15;13.60;99.90
20680;DHT22;10499;47.494;7.608;2022-10-30T20:42:47;13.60;99.90
20680;DHT22;10499;47.494;7.608;2022-10-30T20:45:23;13.70;99.90
20680;DHT22;10499;47.494;7.608;2022-10-30T20:48:03;13.60;99.90
20680;DHT22;10499;47.494;7.608;2022-10-30T20:50:57;13.60;99.90
20680;DHT22;10499;47.494;7.608;2022-10-30T20:56:16;13.70;99.90
20680;DHT22;10499;47.494;7.608;2022-10-30T21:02:02;13.50;99.90
20680;DHT22;10499;47.494;7.608;2022-10-30T21:04:37;13.60;99.90
20680;DHT22;10499;47.494;7.608;2022-10-30T21:12:39;13.40;99.90
20680;DHT22;10499;47.494;7.608;2022-10-30T21:15:22;13.40;99.90
20680;DHT22;10499;47.494;7.608;2022-10-30T21:18:16;13.40;99.90
20680;DHT22;10499;47.494;7.608;2022-10-30T21:39:10;13.00;99.90
20680;DHT22;10499;47.494;7.608;2022-10-30T21:42:06;12.90;99.90
20680;DHT22;10499;47.494;7.608;2022-10-30T21:48:19;13.00;99.90
20680;DHT22;10499;47.494;7.608;2022-10-30T21:54:35;12.90;99.90
20680;DHT22;10499;47.494;7.608;2022-10-30T22:03:26;12.80;99.90
20680;DHT22;10499;47.494;7.608;2022-10-30T22:06:26;12.80;99.90
20680;DHT22;10499;47.494;7.608;2022-10-30T22:09:21;12.90;99.90
20680;DHT22;10499;47.494;7.608;2022-10-30T22:11:58;12.70;99.90
20680;DHT22;10499;47.494;7.608;2022-10-30T22:17:39;12.40;99.90
20680;DHT22;10499;47.494;7.608;2022-10-30T22:20:20;12.40;99.90
20680;DHT22;10499;47.494;7.608;2022-10-30T22:43:50;12.30;99.90
20680;DHT22;10499;47.494;7.608;2022-10-30T22:46:46;12.30;99.90
20680;DHT22;10499;47.494;7.608;2022-10-30T22:49:26;12.30;99.90
20680;DHT22;10499;47.494;7.608;2022-10-30T22:52:36;12.30;99.90
20680;DHT22;10499;47.494;7.608;2022-10-30T23:00:42;12.20;99.90
20680;DHT22;10499;47.494;7.608;2022-10-30T23:17:32;12.10;99.90
20680;DHT22;10499;47.494;7.608;2022-10-30T23:23:50;12.00;99.90
20680;DHT22;10499;47.494;7.608;2022-10-30T23:48:21;11.80;99.90
20680;DHT22;10499;47.494;7.608;2022-10-30T23:51:15;11.80;99.90
